sensor_id;sensor_type;location;lat;lon;timestamp;temperature;humidity
35563;DHT22;21665;40.108;18.302;2023-05-07T00:00:34;14.00;99.90
35563;DHT22;21665;40.108;18.302;2023-05-07T00:03:01;13.90;99.90
35563;DHT22;21665;40.108;18.302;2023-05-07T00:05:27;13.90;99.90
35563;DHT22;21665;40.108;18.302;2023-05-07T00:07:53;13.90;99.90
35563;DHT22;21665;40.108;18.302;2023-05-07T00:10:19;13.90;99.90
35563;DHT22;21665;40.108;18.302;2023-05-07T00:12:48;13.90;99.90
35563;DHT22;21665;40.108;18.302;2023-05-07T00:15:15;13.70;99.90
35563;DHT22;21665;40.108;18.302;2023-05-07T00:17:41;13.70;99.90
35563;DHT22;21665;40.108;18.302;2023-05-07T00:20:08;13.70;99.90
35563;DHT22;21665;40.108;18.302;2023-05-07T00:22:34;13.70;99.90
35563;DHT22;21665;40.108;18.302;2023-05-07T00:25:00;13.70;99.90
35563;DHT22;21665;40.108;18.302;2023-05-07T00:27:27;13.70;99.90
35563;DHT22;21665;40.108;18.302;2023-05-07T00:29:54;13.70;99.90
35563;DHT22;21665;40.108;18.302;2023-05-07T00:32:20;13.70;99.90
35563;DHT22;21665;40.108;18.302;2023-05-07T00:34:48;13.60;99.90
35563;DHT22;21665;40.108;18.302;2023-05-07T00:37:14;13.70;99.90
35563;DHT22;21665;40.108;18.302;2023-05-07T00:39:40;13.70;99.90
35563;DHT22;21665;40.108;18.302;2023-05-07T00:42:07;13.70;99.90
35563;DHT22;21665;40.108;18.302;2023-05-07T00:44:34;13.70;99.90
35563;DHT22;21665;40.108;18.302;2023-05-07T00:47:02;13.70;99.90
35563;DHT22;21665;40.108;18.302;2023-05-07T00:49:37;13.70;99.90
35563;DHT22;21665;40.108;18.302;2023-05-07T00:52:06;13.70;99.90
35563;DHT22;21665;40.108;18.302;2023-05-07T00:54:34;13.50;99.90
35563;DHT22;21665;40.108;18.302;2023-05-07T00:57:02;13.40;99.90
35563;DHT22;21665;40.108;18.302;2023-05-07T00:59:31;13.20;99.90
35563;DHT22;21665;40.108;18.302;2023-05-07T01:01:59;13.00;99.90
35563;DHT22;21665;40.108;18.302;2023-05-07T01:04:26;12.90;99.90
35563;DHT22;21665;40.108;18.302;2023-05-07T01:06:55;12.90;99.90
35563;DHT22;21665;40.108;18.302;2023-05-07T01:09:23;12.80;99.90
35563;DHT22;21665;40.108;18.302;2023-05-07T01:11:52;12.70;99.90
35563;DHT22;21665;40.108;18.302;2023-05-07T01:14:20;12.60;99.90
35563;DHT22;21665;40.108;18.302;2023-05-07T01:16:48;12.50;99.90
35563;DHT22;21665;40.108;18.302;2023-05-07T01:19:17;12.40;99.90
35563;DHT22;21665;40.108;18.302;2023-05-07T01:21:48;12.40;99.90
35563;DHT22;21665;40.108;18.302;2023-05-07T01:24:18;12.30;99.90
35563;DHT22;21665;40.108;18.302;2023-05-07T01:26:45;12.30;99.90
35563;DHT22;21665;40.108;18.302;2023-05-07T01:29:14;12.30;99.90
35563;DHT22;21665;40.108;18.302;2023-05-07T01:31:42;12.20;99.90
35563;DHT22;21665;40.108;18.302;2023-05-07T01:34:11;12.10;99.90
35563;DHT22;21665;40.108;18.302;2023-05-07T01:36:40;12.00;99.90
35563;DHT22;21665;40.108;18.302;2023-05-07T01:39:09;12.10;99.90
35563;DHT22;21665;40.108;18.302;2023-05-07T01:41:37;12.00;99.90
35563;DHT22;21665;40.108;18.302;2023-05-07T01:44:04;12.00;99.90
35563;DHT22;21665;40.108;18.302;2023-05-07T01:46:31;12.00;99.90
35563;DHT22;21665;40.108;18.302;2023-05-07T01:48:59;12.00;99.90
35563;DHT22;21665;40.108;18.302;2023-05-07T01:51:25;12.00;99.90
35563;DHT22;21665;40.108;18.302;2023-05-07T01:53:53;12.00;99.90
35563;DHT22;21665;40.108;18.302;2023-05-07T01:56:21;11.90;99.90
35563;DHT22;21665;40.108;18.302;2023-05-07T01:58:48;11.90;99.90
35563;DHT22;21665;40.108;18.302;2023-05-07T02:01:15;11.90;99.90
35563;DHT22;21665;40.108;18.302;2023-05-07T02:03:42;12.00;99.90
35563;DHT22;21665;40.108;18.302;2023-05-07T02:06:16;11.90;99.90
35563;DHT22;21665;40.108;18.302;2023-05-07T02:08:43;12.00;99.90
35563;DHT22;21665;40.108;18.302;2023-05-07T02:11:11;12.00;99.90
35563;DHT22;21665;40.108;18.302;2023-05-07T02:13:38;12.10;99.90
35563;DHT22;21665;40.108;18.302;2023-05-07T02:16:04;12.10;99.90
35563;DHT22;21665;40.108;18.302;2023-05-07T02:18:31;12.10;99.90
35563;DHT22;21665;40.108;18.302;2023-05-07T02:20:58;12.10;99.90
35563;DHT22;21665;40.108;18.302;2023-05-07T02:23:25;12.00;99.90
35563;DHT22;21665;40.108;18.302;2023-05-07T02:25:51;12.00;99.90
35563;DHT22;21665;40.108;18.302;2023-05-07T02:28:18;11.90;99.90
35563;DHT22;21665;40.108;18.302;2023-05-07T02:31:04;11.90;99.90
35563;DHT22;21665;40.108;18.302;2023-05-07T02:33:32;11.90;99.90
35563;DHT22;21665;40.108;18.302;2023-05-07T02:36:09;11.90;99.90
35563;DHT22;21665;40.108;18.302;2023-05-07T02:38:55;11.70;99.90
35563;DHT22;21665;40.108;18.302;2023-05-07T02:41:22;11.70;99.90
35563;DHT22;21665;40.108;18.302;2023-05-07T02:43:48;11.70;99.90
35563;DHT22;21665;40.108;18.302;2023-05-07T02:46:14;11.60;99.90
35563;DHT22;21665;40.108;18.302;2023-05-07T02:48:46;11.70;99.90
35563;DHT22;21665;40.108;18.302;2023-05-07T02:51:13;11.70;99.90
35563;DHT22;21665;40.108;18.302;2023-05-07T02:53:41;11.80;99.90
35563;DHT22;21665;40.108;18.302;2023-05-07T02:56:14;11.90;99.90
35563;DHT22;21665;40.108;18.302;2023-05-07T02:58:41;11.90;99.90
35563;DHT22;21665;40.108;18.302;2023-05-07T03:01:11;11.90;99.90
35563;DHT22;21665;40.108;18.302;2023-05-07T03:03:52;12.00;99.90
35563;DHT22;21665;40.108;18.302;2023-05-07T03:06:18;12.10;99.90
35563;DHT22;21665;40.108;18.302;2023-05-07T03:08:45;12.10;99.90
35563;DHT22;21665;40.108;18.302;2023-05-07T03:11:11;12.00;99.90
35563;DHT22;21665;40.108;18.302;2023-05-07T03:13:38;11.90;99.90
35563;DHT22;21665;40.108;18.302;2023-05-07T03:16:04;11.80;99.90
35563;DHT22;21665;40.108;18.302;2023-05-07T03:18:31;11.80;99.90
35563;DHT22;21665;40.108;18.302;2023-05-07T03:20:57;11.70;99.90
35563;DHT22;21665;40.108;18.302;2023-05-07T03:23:27;11.70;99.90
35563;DHT22;21665;40.108;18.302;2023-05-07T03:25:53;11.60;99.90
35563;DHT22;21665;40.108;18.302;2023-05-07T03:28:20;11.50;99.90
35563;DHT22;21665;40.108;18.302;2023-05-07T03:30:52;11.50;99.90
35563;DHT22;21665;40.108;18.302;2023-05-07T03:33:19;11.30;99.90
35563;DHT22;21665;40.108;18.302;2023-05-07T03:35:48;11.40;99.90
35563;DHT22;21665;40.108;18.302;2023-05-07T03:38:20;11.40;99.90
35563;DHT22;21665;40.108;18.302;2023-05-07T03:40:46;11.50;99.90
35563;DHT22;21665;40.108;18.302;2023-05-07T03:43:13;11.50;99.90
35563;DHT22;21665;40.108;18.302;2023-05-07T03:45:45;11.50;99.90
35563;DHT22;21665;40.108;18.302;2023-05-07T03:48:16;11.60;99.90
35563;DHT22;21665;40.108;18.302;2023-05-07T03:50:43;11.70;99.90
35563;DHT22;21665;40.108;18.302;2023-05-07T03:53:09;11.80;99.90
35563;DHT22;21665;40.108;18.302;2023-05-07T03:55:38;11.80;99.90
35563;DHT22;21665;40.108;18.302;2023-05-07T03:58:05;11.90;99.90
35563;DHT22;21665;40.108;18.302;2023-05-07T04:00:32;12.00;99.90
35563;DHT22;21665;40.108;18.302;2023-05-07T04:03:07;12.10;99.90
35563;DHT22;21665;40.108;18.302;2023-05-07T04:05:34;12.20;99.90
35563;DHT22;21665;40.108;18.302;2023-05-07T04:08:03;12.30;99.90
35563;DHT22;21665;40.108;18.302;2023-05-07T04:10:38;12.40;99.90
35563;DHT22;21665;40.108;18.302;2023-05-07T04:13:08;12.50;99.90
35563;DHT22;21665;40.108;18.302;2023-05-07T04:15:36;12.60;99.90
35563;DHT22;21665;40.108;18.302;2023-05-07T04:18:05;12.70;99.90
35563;DHT22;21665;40.108;18.302;2023-05-07T04:20:34;12.80;99.90
35563;DHT22;21665;40.108;18.302;2023-05-07T04:23:04;12.90;99.90
35563;DHT22;21665;40.108;18.302;2023-05-07T04:25:32;12.90;99.90
35563;DHT22;21665;40.108;18.302;2023-05-07T04:28:07;12.90;99.90
35563;DHT22;21665;40.108;18.302;2023-05-07T04:30:34;12.90;99.90
35563;DHT22;21665;40.108;18.302;2023-05-07T04:33:03;12.90;99.90
35563;DHT22;21665;40.108;18.302;2023-05-07T04:35:30;12.80;99.90
35563;DHT22;21665;40.108;18.302;2023-05-07T04:37:59;12.80;99.90
35563;DHT22;21665;40.108;18.302;2023-05-07T04:40:25;12.90;99.90
35563;DHT22;21665;40.108;18.302;2023-05-07T04:42:51;13.10;99.90
35563;DHT22;21665;40.108;18.302;2023-05-07T04:45:20;13.30;99.90
35563;DHT22;21665;40.108;18.302;2023-05-07T04:47:47;13.60;99.90
35563;DHT22;21665;40.108;18.302;2023-05-07T04:50:14;14.00;99.90
35563;DHT22;21665;40.108;18.302;2023-05-07T04:52:42;14.50;99.90
35563;DHT22;21665;40.108;18.302;2023-05-07T04:55:10;15.10;99.90
35563;DHT22;21665;40.108;18.302;2023-05-07T04:57:40;15.90;99.90
35563;DHT22;21665;40.108;18.302;2023-05-07T05:00:10;16.90;99.90
35563;DHT22;21665;40.108;18.302;2023-05-07T05:02:38;18.10;99.90
35563;DHT22;21665;40.108;18.302;2023-05-07T05:05:05;19.40;99.90
35563;DHT22;21665;40.108;18.302;2023-05-07T05:07:32;20.30;99.90
35563;DHT22;21665;40.108;18.302;2023-05-07T05:09:59;21.10;99.90
35563;DHT22;21665;40.108;18.302;2023-05-07T05:12:26;21.60;99.90
35563;DHT22;21665;40.108;18.302;2023-05-07T05:14:53;22.20;99.90
35563;DHT22;21665;40.108;18.302;2023-05-07T05:17:20;22.50;99.90
35563;DHT22;21665;40.108;18.302;2023-05-07T05:19:46;22.90;99.90
35563;DHT22;21665;40.108;18.302;2023-05-07T05:22:12;23.40;99.90
35563;DHT22;21665;40.108;18.302;2023-05-07T05:24:39;23.50;99.90
35563;DHT22;21665;40.108;18.302;2023-05-07T05:27:05;23.70;99.90
35563;DHT22;21665;40.108;18.302;2023-05-07T05:29:32;24.00;99.90
35563;DHT22;21665;40.108;18.302;2023-05-07T05:31:59;24.60;99.90
35563;DHT22;21665;40.108;18.302;2023-05-07T05:34:28;24.70;99.90
35563;DHT22;21665;40.108;18.302;2023-05-07T05:36:55;24.70;99.90
35563;DHT22;21665;40.108;18.302;2023-05-07T05:39:23;24.80;99.90
35563;DHT22;21665;40.108;18.302;2023-05-07T05:41:50;25.30;99.90
35563;DHT22;21665;40.108;18.302;2023-05-07T05:44:17;25.10;99.90
35563;DHT22;21665;40.108;18.302;2023-05-07T05:46:43;24.90;99.90
35563;DHT22;21665;40.108;18.302;2023-05-07T05:49:10;24.70;99.90
35563;DHT22;21665;40.108;18.302;2023-05-07T05:51:38;24.70;99.90
35563;DHT22;21665;40.108;18.302;2023-05-07T05:54:04;24.60;99.90
35563;DHT22;21665;40.108;18.302;2023-05-07T05:56:32;24.80;99.90
35563;DHT22;21665;40.108;18.302;2023-05-07T05:58:58;25.20;99.90
35563;DHT22;21665;40.108;18.302;2023-05-07T06:01:26;25.70;99.90
35563;DHT22;21665;40.108;18.302;2023-05-07T06:03:57;25.80;99.90
35563;DHT22;21665;40.108;18.302;2023-05-07T06:06:23;25.90;99.90
35563;DHT22;21665;40.108;18.302;2023-05-07T06:08:50;26.30;99.90
35563;DHT22;21665;40.108;18.302;2023-05-07T06:11:22;26.40;99.90
35563;DHT22;21665;40.108;18.302;2023-05-07T06:13:49;26.40;99.90
35563;DHT22;21665;40.108;18.302;2023-05-07T06:16:15;26.40;99.90
35563;DHT22;21665;40.108;18.302;2023-05-07T06:18:42;26.40;99.90
35563;DHT22;21665;40.108;18.302;2023-05-07T06:21:10;26.30;99.90
35563;DHT22;21665;40.108;18.302;2023-05-07T06:23:38;26.20;99.90
35563;DHT22;21665;40.108;18.302;2023-05-07T06:26:04;26.30;99.90
35563;DHT22;21665;40.108;18.302;2023-05-07T06:28:37;26.40;99.90
35563;DHT22;21665;40.108;18.302;2023-05-07T06:31:21;27.00;99.90
35563;DHT22;21665;40.108;18.302;2023-05-07T06:33:59;27.70;99.90
35563;DHT22;21665;40.108;18.302;2023-05-07T06:36:32;27.50;99.90
35563;DHT22;21665;40.108;18.302;2023-05-07T06:39:01;27.10;99.90
35563;DHT22;21665;40.108;18.302;2023-05-07T06:41:29;27.30;99.90
35563;DHT22;21665;40.108;18.302;2023-05-07T06:44:01;27.30;99.90
35563;DHT22;21665;40.108;18.302;2023-05-07T06:46:42;26.80;99.90
35563;DHT22;21665;40.108;18.302;2023-05-07T06:49:14;27.40;99.90
35563;DHT22;21665;40.108;18.302;2023-05-07T06:51:41;27.00;99.90
35563;DHT22;21665;40.108;18.302;2023-05-07T06:54:07;26.70;99.90
35563;DHT22;21665;40.108;18.302;2023-05-07T06:56:44;27.00;99.90
35563;DHT22;21665;40.108;18.302;2023-05-07T06:59:10;27.60;99.90
35563;DHT22;21665;40.108;18.302;2023-05-07T07:01:42;27.60;99.90
35563;DHT22;21665;40.108;18.302;2023-05-07T10:32:55;25.60;99.90
35563;DHT22;21665;40.108;18.302;2023-05-07T10:35:32;25.80;99.90
35563;DHT22;21665;40.108;18.302;2023-05-07T10:38:01;26.00;99.90
35563;DHT22;21665;40.108;18.302;2023-05-07T10:40:31;25.80;99.90
35563;DHT22;21665;40.108;18.302;2023-05-07T10:42:59;25.60;99.90
35563;DHT22;21665;40.108;18.302;2023-05-07T10:45:30;25.50;99.90
35563;DHT22;21665;40.108;18.302;2023-05-07T10:48:10;25.60;99.90
35563;DHT22;21665;40.108;18.302;2023-05-07T10:50:43;25.80;99.90
35563;DHT22;21665;40.108;18.302;2023-05-07T10:55:50;26.30;99.90
35563;DHT22;21665;40.108;18.302;2023-05-07T10:58:41;26.60;99.90
35563;DHT22;21665;40.108;18.302;2023-05-07T11:01:49;26.60;99.90
35563;DHT22;21665;40.108;18.302;2023-05-07T11:04:17;26.60;99.90
35563;DHT22;21665;40.108;18.302;2023-05-07T11:09:58;26.80;99.90
35563;DHT22;21665;40.108;18.302;2023-05-07T11:12:53;26.60;99.90
35563;DHT22;21665;40.108;18.302;2023-05-07T11:15:36;26.30;99.90
35563;DHT22;21665;40.108;18.302;2023-05-07T11:18:12;25.90;99.90
35563;DHT22;21665;40.108;18.302;2023-05-07T11:20:51;25.50;99.90
35563;DHT22;21665;40.108;18.302;2023-05-07T11:26:19;25.60;99.90
35563;DHT22;21665;40.108;18.302;2023-05-07T11:28:49;25.60;99.90
35563;DHT22;21665;40.108;18.302;2023-05-07T11:31:24;25.70;99.90
35563;DHT22;21665;40.108;18.302;2023-05-07T11:33:54;25.50;99.90
35563;DHT22;21665;40.108;18.302;2023-05-07T11:36:23;25.40;99.90
35563;DHT22;21665;40.108;18.302;2023-05-07T11:38:52;25.30;99.90
35563;DHT22;21665;40.108;18.302;2023-05-07T11:41:22;25.10;99.90
35563;DHT22;21665;40.108;18.302;2023-05-07T11:43:57;25.40;99.90
35563;DHT22;21665;40.108;18.302;2023-05-07T11:46:24;25.50;99.90
35563;DHT22;21665;40.108;18.302;2023-05-07T11:48:51;25.60;99.90
35563;DHT22;21665;40.108;18.302;2023-05-07T11:51:23;25.30;99.90
35563;DHT22;21665;40.108;18.302;2023-05-07T11:53:52;25.40;99.90
35563;DHT22;21665;40.108;18.302;2023-05-07T11:59:16;25.20;99.90
35563;DHT22;21665;40.108;18.302;2023-05-07T12:08:49;25.80;99.90
35563;DHT22;21665;40.108;18.302;2023-05-07T12:11:46;25.70;99.90
35563;DHT22;21665;40.108;18.302;2023-05-07T12:22:50;26.20;99.90
35563;DHT22;21665;40.108;18.302;2023-05-07T12:29:14;25.90;99.90
35563;DHT22;21665;40.108;18.302;2023-05-07T12:31:42;25.70;99.90
35563;DHT22;21665;40.108;18.302;2023-05-07T12:34:11;25.40;99.90
35563;DHT22;21665;40.108;18.302;2023-05-07T12:36:40;25.50;99.90
35563;DHT22;21665;40.108;18.302;2023-05-07T12:39:07;25.50;99.90
35563;DHT22;21665;40.108;18.302;2023-05-07T12:41:55;25.20;99.90
35563;DHT22;21665;40.108;18.302;2023-05-07T12:44:25;25.50;99.90
35563;DHT22;21665;40.108;18.302;2023-05-07T12:46:56;25.30;99.90
35563;DHT22;21665;40.108;18.302;2023-05-07T12:52:17;25.30;99.90
35563;DHT22;21665;40.108;18.302;2023-05-07T13:23:28;25.20;99.90
35563;DHT22;21665;40.108;18.302;2023-05-07T16:39:39;23.50;99.90
35563;DHT22;21665;40.108;18.302;2023-05-07T16:42:06;23.40;99.90
35563;DHT22;21665;40.108;18.302;2023-05-07T16:44:33;23.40;99.90
35563;DHT22;21665;40.108;18.302;2023-05-07T16:46:59;23.20;99.90
35563;DHT22;21665;40.108;18.302;2023-05-07T16:49:29;23.20;99.90
35563;DHT22;21665;40.108;18.302;2023-05-07T16:51:56;23.20;99.90
35563;DHT22;21665;40.108;18.302;2023-05-07T16:54:23;23.00;99.90
35563;DHT22;21665;40.108;18.302;2023-05-07T16:56:49;22.90;99.90
35563;DHT22;21665;40.108;18.302;2023-05-07T16:59:16;22.80;99.90
35563;DHT22;21665;40.108;18.302;2023-05-07T17:01:43;22.70;99.90
35563;DHT22;21665;40.108;18.302;2023-05-07T17:04:09;22.60;99.90
35563;DHT22;21665;40.108;18.302;2023-05-07T17:06:35;22.50;99.90
35563;DHT22;21665;40.108;18.302;2023-05-07T17:09:02;22.40;99.90
35563;DHT22;21665;40.108;18.302;2023-05-07T17:11:31;22.30;99.90
35563;DHT22;21665;40.108;18.302;2023-05-07T17:14:00;22.30;99.90
35563;DHT22;21665;40.108;18.302;2023-05-07T17:16:26;22.20;99.90
35563;DHT22;21665;40.108;18.302;2023-05-07T17:18:53;22.10;99.90
35563;DHT22;21665;40.108;18.302;2023-05-07T17:21:19;22.00;99.90
35563;DHT22;21665;40.108;18.302;2023-05-07T17:23:49;22.00;99.90
35563;DHT22;21665;40.108;18.302;2023-05-07T17:26:18;21.80;99.90
35563;DHT22;21665;40.108;18.302;2023-05-07T17:28:46;21.80;99.90
35563;DHT22;21665;40.108;18.302;2023-05-07T17:31:12;21.70;99.90
35563;DHT22;21665;40.108;18.302;2023-05-07T17:33:39;21.60;99.90
35563;DHT22;21665;40.108;18.302;2023-05-07T17:36:05;21.50;99.90
35563;DHT22;21665;40.108;18.302;2023-05-07T17:38:34;21.40;99.90
35563;DHT22;21665;40.108;18.302;2023-05-07T17:41:00;21.30;99.90
35563;DHT22;21665;40.108;18.302;2023-05-07T17:43:27;21.20;99.90
35563;DHT22;21665;40.108;18.302;2023-05-07T17:45:53;21.10;99.90
35563;DHT22;21665;40.108;18.302;2023-05-07T17:48:23;21.00;99.90
35563;DHT22;21665;40.108;18.302;2023-05-07T17:50:49;20.90;99.90
35563;DHT22;21665;40.108;18.302;2023-05-07T17:53:16;20.80;99.90
35563;DHT22;21665;40.108;18.302;2023-05-07T17:55:49;20.70;99.90
35563;DHT22;21665;40.108;18.302;2023-05-07T17:58:18;20.60;99.90
35563;DHT22;21665;40.108;18.302;2023-05-07T18:00:45;20.40;99.90
35563;DHT22;21665;40.108;18.302;2023-05-07T18:03:11;20.30;99.90
35563;DHT22;21665;40.108;18.302;2023-05-07T18:05:41;20.30;99.90
35563;DHT22;21665;40.108;18.302;2023-05-07T18:08:07;20.20;99.90
35563;DHT22;21665;40.108;18.302;2023-05-07T18:10:34;20.10;99.90
35563;DHT22;21665;40.108;18.302;2023-05-07T18:13:02;20.00;99.90
35563;DHT22;21665;40.108;18.302;2023-05-07T18:15:31;20.00;99.90
35563;DHT22;21665;40.108;18.302;2023-05-07T18:17:58;19.90;99.90
35563;DHT22;21665;40.108;18.302;2023-05-07T18:20:24;19.80;99.90
35563;DHT22;21665;40.108;18.302;2023-05-07T18:22:51;19.80;99.90
35563;DHT22;21665;40.108;18.302;2023-05-07T18:25:17;19.50;99.90
35563;DHT22;21665;40.108;18.302;2023-05-07T18:27:44;19.20;99.90
35563;DHT22;21665;40.108;18.302;2023-05-07T18:30:10;19.00;99.90
35563;DHT22;21665;40.108;18.302;2023-05-07T18:32:37;18.90;99.90
35563;DHT22;21665;40.108;18.302;2023-05-07T18:35:04;18.70;99.90
35563;DHT22;21665;40.108;18.302;2023-05-07T18:37:30;18.60;99.90
35563;DHT22;21665;40.108;18.302;2023-05-07T18:39:57;18.60;99.90
35563;DHT22;21665;40.108;18.302;2023-05-07T18:42:27;18.60;99.90
35563;DHT22;21665;40.108;18.302;2023-05-07T18:44:54;18.50;99.90
35563;DHT22;21665;40.108;18.302;2023-05-07T18:47:20;18.40;99.90
35563;DHT22;21665;40.108;18.302;2023-05-07T18:49:46;18.30;99.90
35563;DHT22;21665;40.108;18.302;2023-05-07T18:52:46;18.20;99.90
35563;DHT22;21665;40.108;18.302;2023-05-07T18:55:15;18.10;99.90
35563;DHT22;21665;40.108;18.302;2023-05-07T18:57:42;17.90;99.90
35563;DHT22;21665;40.108;18.302;2023-05-07T19:00:38;17.80;99.90
35563;DHT22;21665;40.108;18.302;2023-05-07T19:10:54;17.50;99.90
35563;DHT22;21665;40.108;18.302;2023-05-07T19:13:27;17.40;99.90
35563;DHT22;21665;40.108;18.302;2023-05-07T19:15:56;17.30;99.90
35563;DHT22;21665;40.108;18.302;2023-05-07T19:18:46;17.30;99.90
35563;DHT22;21665;40.108;18.302;2023-05-07T19:21:24;17.20;99.90
35563;DHT22;21665;40.108;18.302;2023-05-07T19:23:59;17.20;99.90
35563;DHT22;21665;40.108;18.302;2023-05-07T19:26:28;17.10;99.90
35563;DHT22;21665;40.108;18.302;2023-05-07T19:28:55;17.10;99.90
35563;DHT22;21665;40.108;18.302;2023-05-07T19:31:23;17.00;99.90
35563;DHT22;21665;40.108;18.302;2023-05-07T19:33:55;16.90;99.90
35563;DHT22;21665;40.108;18.302;2023-05-07T19:36:22;16.80;99.90
35563;DHT22;21665;40.108;18.302;2023-05-07T19:38:54;16.80;99.90
35563;DHT22;21665;40.108;18.302;2023-05-07T19:41:28;16.70;99.90
35563;DHT22;21665;40.108;18.302;2023-05-07T20:39:39;15.70;99.90
35563;DHT22;21665;40.108;18.302;2023-05-07T21:50:11;14.70;99.90
35563;DHT22;21665;40.108;18.302;2023-05-07T21:52:38;14.60;99.90
35563;DHT22;21665;40.108;18.302;2023-05-07T21:55:13;14.60;99.90
35563;DHT22;21665;40.108;18.302;2023-05-07T21:57:42;14.50;99.90
35563;DHT22;21665;40.108;18.302;2023-05-07T22:00:09;14.50;99.90
35563;DHT22;21665;40.108;18.302;2023-05-07T22:02:42;14.40;99.90
35563;DHT22;21665;40.108;18.302;2023-05-07T22:05:09;14.40;99.90
35563;DHT22;21665;40.108;18.302;2023-05-07T22:07:41;14.40;99.90
35563;DHT22;21665;40.108;18.302;2023-05-07T22:10:08;14.40;99.90
